sensor_id;sensor_type;location;lat;lon;timestamp;P1;durP1;ratioP1;P2;durP2;ratioP2
7263;SDS011;3673;52.480;13.348;2023-11-18T00:00:10;8.57;;;6.50;;
7263;SDS011;3673;52.480;13.348;2023-11-18T00:02:41;7.75;;;5.60;;
7263;SDS011;3673;52.480;13.348;2023-11-18T00:05:08;12.02;;;6.70;;
7263;SDS011;3673;52.480;13.348;2023-11-18T00:07:35;12.57;;;6.72;;
7263;SDS011;3673;52.480;13.348;2023-11-18T00:10:04;13.73;;;7.57;;
7263;SDS011;3673;52.480;13.348;2023-11-18T00:12:32;11.63;;;7.63;;
7263;SDS011;3673;52.480;13.348;2023-11-18T00:14:59;8.98;;;6.40;;
7263;SDS011;3673;52.480;13.348;2023-11-18T00:17:28;11.65;;;6.53;;
7263;SDS011;3673;52.480;13.348;2023-11-18T00:19:55;10.48;;;6.65;;
7263;SDS011;3673;52.480;13.348;2023-11-18T00:22:21;8.05;;;6.03;;
7263;SDS011;3673;52.480;13.348;2023-11-18T00:24:48;9.13;;;6.80;;
7263;SDS011;3673;52.480;13.348;2023-11-18T00:27:17;8.75;;;6.55;;
7263;SDS011;3673;52.480;13.348;2023-11-18T00:29:43;9.60;;;6.13;;
7263;SDS011;3673;52.480;13.348;2023-11-18T00:32:10;9.25;;;6.68;;
7263;SDS011;3673;52.480;13.348;2023-11-18T00:34:37;10.50;;;7.05;;
7263;SDS011;3673;52.480;13.348;2023-11-18T00:37:04;8.43;;;7.18;;
7263;SDS011;3673;52.480;13.348;2023-11-18T00:39:32;10.70;;;7.88;;
7263;SDS011;3673;52.480;13.348;2023-11-18T00:41:58;8.88;;;7.28;;
7263;SDS011;3673;52.480;13.348;2023-11-18T00:44:26;9.65;;;6.00;;
7263;SDS011;3673;52.480;13.348;2023-11-18T00:46:53;9.48;;;6.43;;
7263;SDS011;3673;52.480;13.348;2023-11-18T00:49:22;8.10;;;6.50;;
7263;SDS011;3673;52.480;13.348;2023-11-18T00:51:50;8.70;;;6.65;;
7263;SDS011;3673;52.480;13.348;2023-11-18T00:54:17;9.15;;;6.82;;
7263;SDS011;3673;52.480;13.348;2023-11-18T00:56:44;9.50;;;6.15;;
7263;SDS011;3673;52.480;13.348;2023-11-18T00:59:11;9.13;;;6.07;;
7263;SDS011;3673;52.480;13.348;2023-11-18T01:01:39;9.75;;;6.43;;
7263;SDS011;3673;52.480;13.348;2023-11-18T01:04:06;8.07;;;6.18;;
7263;SDS011;3673;52.480;13.348;2023-11-18T01:06:33;8.73;;;5.88;;
7263;SDS011;3673;52.480;13.348;2023-11-18T01:09:00;8.65;;;6.30;;
7263;SDS011;3673;52.480;13.348;2023-11-18T01:11:28;10.77;;;6.78;;
7263;SDS011;3673;52.480;13.348;2023-11-18T01:13:55;7.80;;;5.57;;
7263;SDS011;3673;52.480;13.348;2023-11-18T01:16:22;7.65;;;5.72;;
7263;SDS011;3673;52.480;13.348;2023-11-18T01:18:50;8.23;;;5.95;;
7263;SDS011;3673;52.480;13.348;2023-11-18T01:21:17;8.07;;;6.13;;
7263;SDS011;3673;52.480;13.348;2023-11-18T01:23:43;14.52;;;6.32;;
7263;SDS011;3673;52.480;13.348;2023-11-18T01:26:10;9.15;;;6.15;;
7263;SDS011;3673;52.480;13.348;2023-11-18T01:28:38;9.77;;;6.97;;
7263;SDS011;3673;52.480;13.348;2023-11-18T01:31:07;8.10;;;6.35;;
7263;SDS011;3673;52.480;13.348;2023-11-18T01:33:35;9.73;;;6.00;;
7263;SDS011;3673;52.480;13.348;2023-11-18T01:36:06;7.88;;;5.65;;
7263;SDS011;3673;52.480;13.348;2023-11-18T01:38:35;7.45;;;5.75;;
7263;SDS011;3673;52.480;13.348;2023-11-18T01:41:02;10.90;;;6.05;;
7263;SDS011;3673;52.480;13.348;2023-11-18T01:43:31;9.30;;;6.43;;
7263;SDS011;3673;52.480;13.348;2023-11-18T01:45:58;9.48;;;7.18;;
7263;SDS011;3673;52.480;13.348;2023-11-18T01:48:27;8.32;;;6.82;;
7263;SDS011;3673;52.480;13.348;2023-11-18T01:50:55;8.85;;;6.32;;
7263;SDS011;3673;52.480;13.348;2023-11-18T01:53:25;7.38;;;5.80;;
7263;SDS011;3673;52.480;13.348;2023-11-18T01:55:52;8.20;;;5.93;;
7263;SDS011;3673;52.480;13.348;2023-11-18T01:58:19;9.20;;;6.45;;
7263;SDS011;3673;52.480;13.348;2023-11-18T02:00:48;10.25;;;7.38;;
7263;SDS011;3673;52.480;13.348;2023-11-18T02:03:16;8.38;;;6.78;;
7263;SDS011;3673;52.480;13.348;2023-11-18T02:05:43;8.60;;;6.22;;
7263;SDS011;3673;52.480;13.348;2023-11-18T02:08:10;8.73;;;6.63;;
7263;SDS011;3673;52.480;13.348;2023-11-18T02:10:41;8.48;;;6.85;;
7263;SDS011;3673;52.480;13.348;2023-11-18T02:13:18;8.48;;;6.32;;
7263;SDS011;3673;52.480;13.348;2023-11-18T02:15:52;9.30;;;6.05;;
7263;SDS011;3673;52.480;13.348;2023-11-18T02:18:22;7.70;;;5.97;;
7263;SDS011;3673;52.480;13.348;2023-11-18T02:20:52;7.57;;;5.90;;
7263;SDS011;3673;52.480;13.348;2023-11-18T02:23:20;8.77;;;6.40;;
7263;SDS011;3673;52.480;13.348;2023-11-18T02:25:50;8.30;;;6.40;;
7263;SDS011;3673;52.480;13.348;2023-11-18T02:28:16;7.07;;;5.35;;
7263;SDS011;3673;52.480;13.348;2023-11-18T02:30:44;10.35;;;6.47;;
7263;SDS011;3673;52.480;13.348;2023-11-18T02:33:15;10.48;;;6.50;;
7263;SDS011;3673;52.480;13.348;2023-11-18T02:35:48;10.48;;;6.55;;
7263;SDS011;3673;52.480;13.348;2023-11-18T02:38:22;10.10;;;6.57;;
7263;SDS011;3673;52.480;13.348;2023-11-18T02:40:55;9.02;;;6.80;;
7263;SDS011;3673;52.480;13.348;2023-11-18T02:43:29;7.28;;;5.85;;
7263;SDS011;3673;52.480;13.348;2023-11-18T02:45:56;7.65;;;5.88;;
7263;SDS011;3673;52.480;13.348;2023-11-18T02:48:26;10.27;;;7.15;;
7263;SDS011;3673;52.480;13.348;2023-11-18T02:50:53;7.85;;;5.72;;
7263;SDS011;3673;52.480;13.348;2023-11-18T02:53:20;7.32;;;5.95;;
7263;SDS011;3673;52.480;13.348;2023-11-18T02:55:46;8.50;;;6.20;;
7263;SDS011;3673;52.480;13.348;2023-11-18T02:58:14;7.65;;;6.10;;
7263;SDS011;3673;52.480;13.348;2023-11-18T03:00:42;7.65;;;6.07;;
7263;SDS011;3673;52.480;13.348;2023-11-18T03:03:10;7.78;;;6.22;;
7263;SDS011;3673;52.480;13.348;2023-11-18T03:05:37;9.90;;;6.40;;
7263;SDS011;3673;52.480;13.348;2023-11-18T03:08:04;7.45;;;5.90;;
7263;SDS011;3673;52.480;13.348;2023-11-18T03:10:32;11.32;;;6.90;;
7263;SDS011;3673;52.480;13.348;2023-11-18T03:13:00;10.68;;;7.03;;
7263;SDS011;3673;52.480;13.348;2023-11-18T03:15:28;10.57;;;6.53;;
7263;SDS011;3673;52.480;13.348;2023-11-18T03:17:55;9.60;;;6.57;;
7263;SDS011;3673;52.480;13.348;2023-11-18T03:20:22;11.93;;;8.45;;
7263;SDS011;3673;52.480;13.348;2023-11-18T03:22:50;11.55;;;7.32;;
7263;SDS011;3673;52.480;13.348;2023-11-18T03:25:17;11.82;;;7.30;;
7263;SDS011;3673;52.480;13.348;2023-11-18T03:27:46;9.35;;;6.70;;
7263;SDS011;3673;52.480;13.348;2023-11-18T03:30:14;10.82;;;7.35;;
7263;SDS011;3673;52.480;13.348;2023-11-18T03:32:43;10.82;;;7.28;;
7263;SDS011;3673;52.480;13.348;2023-11-18T03:35:10;9.02;;;6.28;;
7263;SDS011;3673;52.480;13.348;2023-11-18T03:37:37;9.55;;;6.45;;
7263;SDS011;3673;52.480;13.348;2023-11-18T03:40:06;10.02;;;7.18;;
7263;SDS011;3673;52.480;13.348;2023-11-18T03:42:35;9.73;;;6.97;;
7263;SDS011;3673;52.480;13.348;2023-11-18T03:45:02;9.05;;;6.00;;
7263;SDS011;3673;52.480;13.348;2023-11-18T03:47:30;9.98;;;6.53;;
7263;SDS011;3673;52.480;13.348;2023-11-18T03:49:58;10.88;;;6.78;;
7263;SDS011;3673;52.480;13.348;2023-11-18T03:52:25;11.40;;;7.88;;
7263;SDS011;3673;52.480;13.348;2023-11-18T03:54:52;12.80;;;7.97;;
7263;SDS011;3673;52.480;13.348;2023-11-18T03:57:20;10.73;;;7.75;;
7263;SDS011;3673;52.480;13.348;2023-11-18T03:59:46;10.40;;;6.68;;
7263;SDS011;3673;52.480;13.348;2023-11-18T04:02:13;7.93;;;5.80;;
7263;SDS011;3673;52.480;13.348;2023-11-18T04:04:40;8.85;;;6.10;;
7263;SDS011;3673;52.480;13.348;2023-11-18T04:07:08;12.23;;;6.72;;
7263;SDS011;3673;52.480;13.348;2023-11-18T04:09:34;9.48;;;6.25;;
7263;SDS011;3673;52.480;13.348;2023-11-18T04:12:01;9.27;;;7.10;;
7263;SDS011;3673;52.480;13.348;2023-11-18T04:14:30;11.05;;;6.82;;
7263;SDS011;3673;52.480;13.348;2023-11-18T04:16:57;10.18;;;7.85;;
7263;SDS011;3673;52.480;13.348;2023-11-18T04:19:23;10.30;;;6.97;;
7263;SDS011;3673;52.480;13.348;2023-11-18T04:21:50;10.07;;;7.18;;
7263;SDS011;3673;52.480;13.348;2023-11-18T04:24:19;10.48;;;6.90;;
7263;SDS011;3673;52.480;13.348;2023-11-18T04:26:45;10.32;;;8.18;;
7263;SDS011;3673;52.480;13.348;2023-11-18T04:29:13;12.07;;;8.45;;
7263;SDS011;3673;52.480;13.348;2023-11-18T04:31:39;10.30;;;7.22;;
7263;SDS011;3673;52.480;13.348;2023-11-18T04:34:06;10.88;;;7.97;;
7263;SDS011;3673;52.480;13.348;2023-11-18T04:36:33;9.90;;;7.00;;
7263;SDS011;3673;52.480;13.348;2023-11-18T04:39:00;12.10;;;8.57;;
7263;SDS011;3673;52.480;13.348;2023-11-18T04:41:29;16.33;;;8.57;;
7263;SDS011;3673;52.480;13.348;2023-11-18T04:43:56;15.05;;;7.82;;
7263;SDS011;3673;52.480;13.348;2023-11-18T04:46:23;12.85;;;8.40;;
7263;SDS011;3673;52.480;13.348;2023-11-18T04:48:49;11.98;;;9.57;;
7263;SDS011;3673;52.480;13.348;2023-11-18T04:51:18;10.00;;;7.95;;
7263;SDS011;3673;52.480;13.348;2023-11-18T04:53:46;10.90;;;8.02;;
7263;SDS011;3673;52.480;13.348;2023-11-18T04:56:13;10.43;;;7.93;;
7263;SDS011;3673;52.480;13.348;2023-11-18T04:58:43;10.13;;;7.15;;
7263;SDS011;3673;52.480;13.348;2023-11-18T05:01:12;15.75;;;8.35;;
7263;SDS011;3673;52.480;13.348;2023-11-18T05:03:38;10.95;;;7.97;;
7263;SDS011;3673;52.480;13.348;2023-11-18T05:06:05;10.30;;;6.97;;
7263;SDS011;3673;52.480;13.348;2023-11-18T05:08:33;13.57;;;7.50;;
7263;SDS011;3673;52.480;13.348;2023-11-18T05:11:01;10.93;;;7.60;;
7263;SDS011;3673;52.480;13.348;2023-11-18T05:13:26;12.73;;;7.68;;
7263;SDS011;3673;52.480;13.348;2023-11-18T05:15:56;10.65;;;7.70;;
7263;SDS011;3673;52.480;13.348;2023-11-18T05:18:22;10.15;;;7.38;;
7263;SDS011;3673;52.480;13.348;2023-11-18T05:20:49;11.13;;;7.85;;
7263;SDS011;3673;52.480;13.348;2023-11-18T05:23:16;12.88;;;8.35;;
7263;SDS011;3673;52.480;13.348;2023-11-18T05:25:42;10.70;;;7.63;;
7263;SDS011;3673;52.480;13.348;2023-11-18T05:28:09;11.73;;;8.10;;
7263;SDS011;3673;52.480;13.348;2023-11-18T05:30:36;11.35;;;7.82;;
7263;SDS011;3673;52.480;13.348;2023-11-18T05:33:05;11.38;;;8.07;;
7263;SDS011;3673;52.480;13.348;2023-11-18T05:35:31;11.00;;;7.72;;
7263;SDS011;3673;52.480;13.348;2023-11-18T05:38:00;12.35;;;8.68;;
7263;SDS011;3673;52.480;13.348;2023-11-18T05:40:28;13.10;;;9.15;;
7263;SDS011;3673;52.480;13.348;2023-11-18T05:42:55;12.77;;;9.07;;
7263;SDS011;3673;52.480;13.348;2023-11-18T05:45:23;13.02;;;8.73;;
7263;SDS011;3673;52.480;13.348;2023-11-18T05:47:56;14.52;;;7.88;;
7263;SDS011;3673;52.480;13.348;2023-11-18T05:50:25;12.95;;;8.38;;
7263;SDS011;3673;52.480;13.348;2023-11-18T05:52:52;12.43;;;8.05;;
7263;SDS011;3673;52.480;13.348;2023-11-18T05:55:19;12.07;;;9.23;;
7263;SDS011;3673;52.480;13.348;2023-11-18T05:57:46;13.65;;;8.52;;
7263;SDS011;3673;52.480;13.348;2023-11-18T06:00:13;12.13;;;8.30;;
7263;SDS011;3673;52.480;13.348;2023-11-18T06:02:44;11.30;;;7.95;;
7263;SDS011;3673;52.480;13.348;2023-11-18T06:05:11;9.30;;;7.13;;
7263;SDS011;3673;52.480;13.348;2023-11-18T06:07:39;10.70;;;8.05;;
7263;SDS011;3673;52.480;13.348;2023-11-18T06:10:08;14.55;;;7.70;;
7263;SDS011;3673;52.480;13.348;2023-11-18T06:12:37;12.52;;;8.02;;
7263;SDS011;3673;52.480;13.348;2023-11-18T06:15:06;15.95;;;7.45;;
7263;SDS011;3673;52.480;13.348;2023-11-18T06:17:36;10.48;;;7.43;;
7263;SDS011;3673;52.480;13.348;2023-11-18T06:20:04;11.40;;;8.20;;
7263;SDS011;3673;52.480;13.348;2023-11-18T06:22:33;10.77;;;7.70;;
7263;SDS011;3673;52.480;13.348;2023-11-18T06:25:01;9.90;;;7.55;;
7263;SDS011;3673;52.480;13.348;2023-11-18T06:27:28;11.00;;;7.47;;
7263;SDS011;3673;52.480;13.348;2023-11-18T06:29:54;12.50;;;8.82;;
7263;SDS011;3673;52.480;13.348;2023-11-18T06:32:21;10.57;;;8.15;;
7263;SDS011;3673;52.480;13.348;2023-11-18T06:34:50;11.05;;;7.45;;
7263;SDS011;3673;52.480;13.348;2023-11-18T06:37:18;12.20;;;7.78;;
7263;SDS011;3673;52.480;13.348;2023-11-18T06:39:44;14.07;;;8.20;;
7263;SDS011;3673;52.480;13.348;2023-11-18T06:42:15;13.05;;;7.63;;
7263;SDS011;3673;52.480;13.348;2023-11-18T06:44:42;9.82;;;7.15;;
7263;SDS011;3673;52.480;13.348;2023-11-18T06:47:09;11.07;;;7.00;;
7263;SDS011;3673;52.480;13.348;2023-11-18T06:49:37;10.38;;;7.85;;
7263;SDS011;3673;52.480;13.348;2023-11-18T06:52:06;9.75;;;7.15;;
7263;SDS011;3673;52.480;13.348;2023-11-18T06:54:34;10.18;;;7.28;;
7263;SDS011;3673;52.480;13.348;2023-11-18T06:57:02;10.82;;;7.22;;
7263;SDS011;3673;52.480;13.348;2023-11-18T06:59:31;8.82;;;7.07;;
7263;SDS011;3673;52.480;13.348;2023-11-18T07:01:57;10.88;;;7.80;;
7263;SDS011;3673;52.480;13.348;2023-11-18T07:04:24;11.55;;;8.43;;
7263;SDS011;3673;52.480;13.348;2023-11-18T07:06:51;11.48;;;7.55;;
7263;SDS011;3673;52.480;13.348;2023-11-18T07:09:18;11.93;;;8.25;;
7263;SDS011;3673;52.480;13.348;2023-11-18T07:11:45;12.15;;;8.57;;
7263;SDS011;3673;52.480;13.348;2023-11-18T07:14:13;12.95;;;9.20;;
7263;SDS011;3673;52.480;13.348;2023-11-18T07:16:42;12.48;;;8.55;;
7263;SDS011;3673;52.480;13.348;2023-11-18T07:19:09;11.63;;;8.57;;
7263;SDS011;3673;52.480;13.348;2023-11-18T07:21:42;10.45;;;8.20;;
7263;SDS011;3673;52.480;13.348;2023-11-18T07:24:09;12.93;;;9.20;;
7263;SDS011;3673;52.480;13.348;2023-11-18T07:26:36;13.27;;;9.07;;
7263;SDS011;3673;52.480;13.348;2023-11-18T07:29:03;16.23;;;9.52;;
7263;SDS011;3673;52.480;13.348;2023-11-18T07:31:32;12.98;;;8.98;;
7263;SDS011;3673;52.480;13.348;2023-11-18T07:34:02;12.93;;;7.68;;
7263;SDS011;3673;52.480;13.348;2023-11-18T07:36:30;12.25;;;7.78;;
7263;SDS011;3673;52.480;13.348;2023-11-18T07:38:57;11.65;;;8.32;;
7263;SDS011;3673;52.480;13.348;2023-11-18T07:41:26;12.95;;;8.40;;
7263;SDS011;3673;52.480;13.348;2023-11-18T07:43:52;13.85;;;9.23;;
7263;SDS011;3673;52.480;13.348;2023-11-18T07:46:20;13.45;;;8.63;;
7263;SDS011;3673;52.480;13.348;2023-11-18T07:48:48;11.88;;;7.93;;
7263;SDS011;3673;52.480;13.348;2023-11-18T07:51:16;13.23;;;8.05;;
7263;SDS011;3673;52.480;13.348;2023-11-18T07:53:43;12.05;;;8.23;;
7263;SDS011;3673;52.480;13.348;2023-11-18T07:56:10;11.77;;;8.93;;
7263;SDS011;3673;52.480;13.348;2023-11-18T07:58:37;11.50;;;8.13;;
7263;SDS011;3673;52.480;13.348;2023-11-18T08:01:04;11.48;;;8.05;;
7263;SDS011;3673;52.480;13.348;2023-11-18T08:03:32;15.45;;;10.50;;
7263;SDS011;3673;52.480;13.348;2023-11-18T08:05:59;15.45;;;8.65;;
7263;SDS011;3673;52.480;13.348;2023-11-18T08:08:28;13.32;;;9.00;;
7263;SDS011;3673;52.480;13.348;2023-11-18T08:10:55;16.35;;;9.48;;
7263;SDS011;3673;52.480;13.348;2023-11-18T08:13:23;14.07;;;9.65;;
7263;SDS011;3673;52.480;13.348;2023-11-18T08:15:49;13.02;;;9.40;;
7263;SDS011;3673;52.480;13.348;2023-11-18T08:18:17;17.00;;;9.13;;
7263;SDS011;3673;52.480;13.348;2023-11-18T08:20:46;12.38;;;8.93;;
7263;SDS011;3673;52.480;13.348;2023-11-18T08:23:13;13.45;;;8.90;;
7263;SDS011;3673;52.480;13.348;2023-11-18T08:25:41;14.95;;;10.75;;
7263;SDS011;3673;52.480;13.348;2023-11-18T08:28:09;12.93;;;9.68;;
7263;SDS011;3673;52.480;13.348;2023-11-18T08:30:36;17.55;;;10.32;;
7263;SDS011;3673;52.480;13.348;2023-11-18T08:33:04;17.33;;;9.68;;
7263;SDS011;3673;52.480;13.348;2023-11-18T08:35:33;17.38;;;10.25;;
7263;SDS011;3673;52.480;13.348;2023-11-18T08:38:00;15.32;;;10.10;;
7263;SDS011;3673;52.480;13.348;2023-11-18T08:40:29;14.70;;;10.35;;
7263;SDS011;3673;52.480;13.348;2023-11-18T08:42:57;14.05;;;10.13;;
7263;SDS011;3673;52.480;13.348;2023-11-18T08:45:24;16.67;;;10.10;;
7263;SDS011;3673;52.480;13.348;2023-11-18T08:47:54;16.42;;;9.65;;
7263;SDS011;3673;52.480;13.348;2023-11-18T08:50:21;15.15;;;9.60;;
7263;SDS011;3673;52.480;13.348;2023-11-18T08:52:50;13.23;;;9.50;;
7263;SDS011;3673;52.480;13.348;2023-11-18T08:55:22;17.83;;;10.45;;
7263;SDS011;3673;52.480;13.348;2023-11-18T08:58:04;14.77;;;9.93;;
7263;SDS011;3673;52.480;13.348;2023-11-18T09:00:41;12.65;;;9.65;;
7263;SDS011;3673;52.480;13.348;2023-11-18T09:03:13;17.95;;;9.63;;
7263;SDS011;3673;52.480;13.348;2023-11-18T09:05:49;12.15;;;8.65;;
7263;SDS011;3673;52.480;13.348;2023-11-18T09:08:23;13.95;;;9.15;;
7263;SDS011;3673;52.480;13.348;2023-11-18T09:10:52;15.25;;;10.13;;
7263;SDS011;3673;52.480;13.348;2023-11-18T09:13:22;16.45;;;9.98;;
7263;SDS011;3673;52.480;13.348;2023-11-18T09:15:53;12.52;;;8.82;;
7263;SDS011;3673;52.480;13.348;2023-11-18T09:18:22;14.35;;;9.25;;
7263;SDS011;3673;52.480;13.348;2023-11-18T09:20:49;11.50;;;8.85;;
7263;SDS011;3673;52.480;13.348;2023-11-18T09:23:17;15.77;;;10.60;;
7263;SDS011;3673;52.480;13.348;2023-11-18T09:25:45;15.32;;;10.45;;
7263;SDS011;3673;52.480;13.348;2023-11-18T09:28:12;15.65;;;9.00;;
7263;SDS011;3673;52.480;13.348;2023-11-18T09:30:42;10.40;;;7.45;;
7263;SDS011;3673;52.480;13.348;2023-11-18T09:33:15;15.80;;;10.25;;
7263;SDS011;3673;52.480;13.348;2023-11-18T09:35:50;13.93;;;9.47;;
7263;SDS011;3673;52.480;13.348;2023-11-18T09:38:20;13.85;;;9.90;;
7263;SDS011;3673;52.480;13.348;2023-11-18T09:40:49;15.70;;;9.45;;
7263;SDS011;3673;52.480;13.348;2023-11-18T09:43:18;12.57;;;8.98;;
7263;SDS011;3673;52.480;13.348;2023-11-18T09:45:48;11.70;;;8.90;;
7263;SDS011;3673;52.480;13.348;2023-11-18T09:48:20;12.57;;;8.48;;
7263;SDS011;3673;52.480;13.348;2023-11-18T09:50:50;12.48;;;8.73;;
7263;SDS011;3673;52.480;13.348;2023-11-18T09:53:19;13.13;;;9.40;;
7263;SDS011;3673;52.480;13.348;2023-11-18T09:55:52;12.10;;;8.13;;
7263;SDS011;3673;52.480;13.348;2023-11-18T09:58:27;12.73;;;9.27;;
7263;SDS011;3673;52.480;13.348;2023-11-18T10:01:07;15.75;;;7.60;;
7263;SDS011;3673;52.480;13.348;2023-11-18T10:03:39;12.45;;;8.63;;
7263;SDS011;3673;52.480;13.348;2023-11-18T10:06:08;12.65;;;8.48;;
7263;SDS011;3673;52.480;13.348;2023-11-18T10:08:36;11.07;;;7.65;;
7263;SDS011;3673;52.480;13.348;2023-11-18T10:11:03;14.15;;;8.95;;
7263;SDS011;3673;52.480;13.348;2023-11-18T10:13:34;11.15;;;8.30;;
7263;SDS011;3673;52.480;13.348;2023-11-18T10:16:05;14.20;;;8.15;;
7263;SDS011;3673;52.480;13.348;2023-11-18T10:18:34;12.65;;;8.02;;
7263;SDS011;3673;52.480;13.348;2023-11-18T10:21:02;12.90;;;8.38;;
7263;SDS011;3673;52.480;13.348;2023-11-18T10:23:33;11.57;;;7.85;;
7263;SDS011;3673;52.480;13.348;2023-11-18T10:26:02;12.07;;;8.02;;
7263;SDS011;3673;52.480;13.348;2023-11-18T10:28:30;13.23;;;7.47;;
7263;SDS011;3673;52.480;13.348;2023-11-18T10:30:59;10.63;;;8.02;;
7263;SDS011;3673;52.480;13.348;2023-11-18T10:33:30;12.13;;;7.90;;
7263;SDS011;3673;52.480;13.348;2023-11-18T10:35:58;14.52;;;8.43;;
7263;SDS011;3673;52.480;13.348;2023-11-18T10:38:28;11.13;;;7.22;;
7263;SDS011;3673;52.480;13.348;2023-11-18T10:40:56;15.35;;;8.48;;
7263;SDS011;3673;52.480;13.348;2023-11-18T10:43:26;14.63;;;8.23;;
7263;SDS011;3673;52.480;13.348;2023-11-18T10:46:03;11.95;;;8.18;;
7263;SDS011;3673;52.480;13.348;2023-11-18T10:48:38;12.45;;;7.75;;
7263;SDS011;3673;52.480;13.348;2023-11-18T10:51:08;10.40;;;7.70;;
7263;SDS011;3673;52.480;13.348;2023-11-18T10:53:38;11.77;;;7.63;;
7263;SDS011;3673;52.480;13.348;2023-11-18T10:56:15;11.25;;;7.28;;
7263;SDS011;3673;52.480;13.348;2023-11-18T10:58:46;10.32;;;6.72;;
7263;SDS011;3673;52.480;13.348;2023-11-18T11:01:13;9.98;;;7.20;;
7263;SDS011;3673;52.480;13.348;2023-11-18T11:03:53;10.73;;;7.50;;
7263;SDS011;3673;52.480;13.348;2023-11-18T11:06:21;9.60;;;6.88;;
7263;SDS011;3673;52.480;13.348;2023-11-18T11:08:49;16.77;;;8.25;;
7263;SDS011;3673;52.480;13.348;2023-11-18T11:11:16;10.10;;;6.88;;
7263;SDS011;3673;52.480;13.348;2023-11-18T11:13:49;11.55;;;7.20;;
7263;SDS011;3673;52.480;13.348;2023-11-18T11:16:20;11.10;;;6.25;;
7263;SDS011;3673;52.480;13.348;2023-11-18T11:19:00;12.50;;;6.85;;
7263;SDS011;3673;52.480;13.348;2023-11-18T11:21:33;8.90;;;6.43;;
7263;SDS011;3673;52.480;13.348;2023-11-18T11:24:15;12.63;;;6.82;;
7263;SDS011;3673;52.480;13.348;2023-11-18T11:27:00;8.15;;;5.93;;
7263;SDS011;3673;52.480;13.348;2023-11-18T11:29:43;7.72;;;5.43;;
7263;SDS011;3673;52.480;13.348;2023-11-18T11:32:18;9.25;;;6.43;;
7263;SDS011;3673;52.480;13.348;2023-11-18T11:34:55;10.63;;;5.50;;
7263;SDS011;3673;52.480;13.348;2023-11-18T11:37:32;12.13;;;7.28;;
7263;SDS011;3673;52.480;13.348;2023-11-18T11:40:00;9.35;;;6.43;;
7263;SDS011;3673;52.480;13.348;2023-11-18T11:42:32;9.45;;;6.28;;
7263;SDS011;3673;52.480;13.348;2023-11-18T11:44:59;10.88;;;7.13;;
7263;SDS011;3673;52.480;13.348;2023-11-18T11:47:27;10.30;;;7.07;;
7263;SDS011;3673;52.480;13.348;2023-11-18T11:50:02;11.80;;;7.93;;
7263;SDS011;3673;52.480;13.348;2023-11-18T11:55:15;14.43;;;8.45;;
7263;SDS011;3673;52.480;13.348;2023-11-18T11:57:53;10.25;;;7.15;;
7263;SDS011;3673;52.480;13.348;2023-11-18T12:00:23;9.35;;;6.72;;
7263;SDS011;3673;52.480;13.348;2023-11-18T12:02:51;13.43;;;8.13;;
7263;SDS011;3673;52.480;13.348;2023-11-18T12:05:21;12.80;;;7.47;;
7263;SDS011;3673;52.480;13.348;2023-11-18T12:07:51;12.60;;;7.80;;
7263;SDS011;3673;52.480;13.348;2023-11-18T12:10:20;12.55;;;7.47;;
7263;SDS011;3673;52.480;13.348;2023-11-18T12:12:47;11.13;;;7.43;;
7263;SDS011;3673;52.480;13.348;2023-11-18T12:15:17;17.02;;;9.32;;
7263;SDS011;3673;52.480;13.348;2023-11-18T12:18:23;13.15;;;9.05;;
7263;SDS011;3673;52.480;13.348;2023-11-18T12:20:50;15.52;;;10.05;;
7263;SDS011;3673;52.480;13.348;2023-11-18T12:23:20;15.45;;;8.77;;
7263;SDS011;3673;52.480;13.348;2023-11-18T12:25:49;12.60;;;8.50;;
7263;SDS011;3673;52.480;13.348;2023-11-18T12:28:20;15.70;;;8.95;;
7263;SDS011;3673;52.480;13.348;2023-11-18T12:30:54;14.65;;;7.95;;
7263;SDS011;3673;52.480;13.348;2023-11-18T12:36:55;15.75;;;8.70;;
7263;SDS011;3673;52.480;13.348;2023-11-18T12:43:11;11.88;;;7.57;;
7263;SDS011;3673;52.480;13.348;2023-11-18T12:49:14;10.68;;;7.53;;
7263;SDS011;3673;52.480;13.348;2023-11-18T12:51:44;11.65;;;7.72;;
7263;SDS011;3673;52.480;13.348;2023-11-18T12:54:13;13.50;;;8.43;;
7263;SDS011;3673;52.480;13.348;2023-11-18T12:56:41;12.05;;;6.93;;
7263;SDS011;3673;52.480;13.348;2023-11-18T12:59:09;11.35;;;7.32;;
7263;SDS011;3673;52.480;13.348;2023-11-18T13:01:38;12.65;;;7.30;;
7263;SDS011;3673;52.480;13.348;2023-11-18T13:04:08;11.90;;;6.80;;
7263;SDS011;3673;52.480;13.348;2023-11-18T13:06:34;11.77;;;7.10;;
7263;SDS011;3673;52.480;13.348;2023-11-18T13:09:02;11.07;;;7.45;;
7263;SDS011;3673;52.480;13.348;2023-11-18T13:11:34;12.20;;;7.43;;
7263;SDS011;3673;52.480;13.348;2023-11-18T13:14:03;11.82;;;6.75;;
7263;SDS011;3673;52.480;13.348;2023-11-18T13:16:30;10.82;;;7.28;;
7263;SDS011;3673;52.480;13.348;2023-11-18T13:18:57;13.80;;;7.47;;
7263;SDS011;3673;52.480;13.348;2023-11-18T13:21:25;12.35;;;8.40;;
7263;SDS011;3673;52.480;13.348;2023-11-18T13:23:54;11.98;;;7.78;;
7263;SDS011;3673;52.480;13.348;2023-11-18T13:26:21;13.48;;;8.23;;
7263;SDS011;3673;52.480;13.348;2023-11-18T13:28:49;13.10;;;8.23;;
7263;SDS011;3673;52.480;13.348;2023-11-18T13:31:16;11.60;;;7.68;;
7263;SDS011;3673;52.480;13.348;2023-11-18T13:33:45;12.52;;;8.13;;
7263;SDS011;3673;52.480;13.348;2023-11-18T13:36:13;13.75;;;9.05;;
7263;SDS011;3673;52.480;13.348;2023-11-18T13:38:42;13.38;;;8.70;;
7263;SDS011;3673;52.480;13.348;2023-11-18T13:41:09;15.73;;;9.02;;
7263;SDS011;3673;52.480;13.348;2023-11-18T13:43:41;13.63;;;9.32;;
7263;SDS011;3673;52.480;13.348;2023-11-18T13:46:12;14.82;;;9.25;;
7263;SDS011;3673;52.480;13.348;2023-11-18T13:48:39;13.68;;;8.82;;
7263;SDS011;3673;52.480;13.348;2023-11-18T13:51:07;15.75;;;7.93;;
7263;SDS011;3673;52.480;13.348;2023-11-18T13:53:39;14.52;;;8.40;;
7263;SDS011;3673;52.480;13.348;2023-11-18T13:56:10;14.35;;;8.48;;
7263;SDS011;3673;52.480;13.348;2023-11-18T13:58:37;11.00;;;7.78;;
7263;SDS011;3673;52.480;13.348;2023-11-18T14:01:04;9.90;;;7.63;;
7263;SDS011;3673;52.480;13.348;2023-11-18T14:03:32;16.35;;;7.88;;
7263;SDS011;3673;52.480;13.348;2023-11-18T14:06:01;14.13;;;8.85;;
7263;SDS011;3673;52.480;13.348;2023-11-18T14:08:29;13.25;;;9.07;;
7263;SDS011;3673;52.480;13.348;2023-11-18T14:10:56;14.40;;;8.48;;
7263;SDS011;3673;52.480;13.348;2023-11-18T14:13:24;15.80;;;8.63;;
7263;SDS011;3673;52.480;13.348;2023-11-18T14:15:55;11.88;;;7.43;;
7263;SDS011;3673;52.480;13.348;2023-11-18T14:18:22;12.38;;;8.02;;
7263;SDS011;3673;52.480;13.348;2023-11-18T14:20:49;16.20;;;8.98;;
7263;SDS011;3673;52.480;13.348;2023-11-18T14:23:16;13.70;;;8.43;;
7263;SDS011;3673;52.480;13.348;2023-11-18T14:25:43;16.67;;;8.60;;
7263;SDS011;3673;52.480;13.348;2023-11-18T14:28:10;13.57;;;8.25;;
7263;SDS011;3673;52.480;13.348;2023-11-18T14:30:39;14.02;;;8.02;;
7263;SDS011;3673;52.480;13.348;2023-11-18T14:33:07;12.35;;;8.45;;
7263;SDS011;3673;52.480;13.348;2023-11-18T14:35:33;17.70;;;9.70;;
7263;SDS011;3673;52.480;13.348;2023-11-18T14:38:00;14.88;;;8.48;;
7263;SDS011;3673;52.480;13.348;2023-11-18T14:40:27;12.88;;;8.30;;
7263;SDS011;3673;52.480;13.348;2023-11-18T14:42:54;12.25;;;8.05;;
7263;SDS011;3673;52.480;13.348;2023-11-18T14:45:22;15.30;;;9.10;;
7263;SDS011;3673;52.480;13.348;2023-11-18T14:47:50;13.90;;;8.75;;
7263;SDS011;3673;52.480;13.348;2023-11-18T14:50:18;13.45;;;9.18;;
7263;SDS011;3673;52.480;13.348;2023-11-18T14:52:46;12.05;;;7.95;;
7263;SDS011;3673;52.480;13.348;2023-11-18T14:55:16;16.65;;;8.48;;
7263;SDS011;3673;52.480;13.348;2023-11-18T14:57:44;12.43;;;7.90;;
7263;SDS011;3673;52.480;13.348;2023-11-18T15:00:12;12.63;;;7.72;;
7263;SDS011;3673;52.480;13.348;2023-11-18T15:02:46;15.25;;;8.70;;
7263;SDS011;3673;52.480;13.348;2023-11-18T15:05:15;14.27;;;8.75;;
7263;SDS011;3673;52.480;13.348;2023-11-18T15:07:44;12.93;;;8.38;;
7263;SDS011;3673;52.480;13.348;2023-11-18T15:10:13;14.93;;;9.75;;
7263;SDS011;3673;52.480;13.348;2023-11-18T15:12:46;14.95;;;9.23;;